sensor_id;sensor_type;location;lat;lon;timestamp;P1;durP1;ratioP1;P2;durP2;ratioP2
46719;SDS011;32452;51.382;-0.002;2022-07-10T00:02:22;13.00;;;4.68;;
46719;SDS011;32452;51.382;-0.002;2022-07-10T00:05:08;7.40;;;4.18;;
46719;SDS011;32452;51.382;-0.002;2022-07-10T00:08:01;7.55;;;3.30;;
46719;SDS011;32452;51.382;-0.002;2022-07-10T00:10:47;9.68;;;3.08;;
46719;SDS011;32452;51.382;-0.002;2022-07-10T00:13:32;7.38;;;2.85;;
46719;SDS011;32452;51.382;-0.002;2022-07-10T00:16:18;6.13;;;2.65;;
46719;SDS011;32452;51.382;-0.002;2022-07-10T00:19:03;7.25;;;3.33;;
46719;SDS011;32452;51.382;-0.002;2022-07-10T00:21:49;5.90;;;2.90;;
46719;SDS011;32452;51.382;-0.002;2022-07-10T00:24:35;8.15;;;3.10;;
46719;SDS011;32452;51.382;-0.002;2022-07-10T00:27:21;7.95;;;3.17;;
46719;SDS011;32452;51.382;-0.002;2022-07-10T00:30:07;8.65;;;3.10;;
46719;SDS011;32452;51.382;-0.002;2022-07-10T00:32:53;7.55;;;2.78;;
46719;SDS011;32452;51.382;-0.002;2022-07-10T00:35:40;5.85;;;2.40;;
46719;SDS011;32452;51.382;-0.002;2022-07-10T00:38:25;5.28;;;2.55;;
46719;SDS011;32452;51.382;-0.002;2022-07-10T00:41:11;3.55;;;2.13;;
46719;SDS011;32452;51.382;-0.002;2022-07-10T00:43:57;4.72;;;2.47;;
46719;SDS011;32452;51.382;-0.002;2022-07-10T00:46:44;7.35;;;2.97;;
46719;SDS011;32452;51.382;-0.002;2022-07-10T00:49:48;6.82;;;2.67;;
46719;SDS011;32452;51.382;-0.002;2022-07-10T00:52:51;6.30;;;2.75;;
46719;SDS011;32452;51.382;-0.002;2022-07-10T00:56:01;7.45;;;2.85;;
46719;SDS011;32452;51.382;-0.002;2022-07-10T00:59:02;5.15;;;2.90;;
46719;SDS011;32452;51.382;-0.002;2022-07-10T01:01:48;6.30;;;2.65;;
46719;SDS011;32452;51.382;-0.002;2022-07-10T01:04:36;7.90;;;2.78;;
46719;SDS011;32452;51.382;-0.002;2022-07-10T01:07:25;7.57;;;2.90;;
46719;SDS011;32452;51.382;-0.002;2022-07-10T01:10:11;10.00;;;3.22;;
46719;SDS011;32452;51.382;-0.002;2022-07-10T01:13:02;4.75;;;2.70;;
46719;SDS011;32452;51.382;-0.002;2022-07-10T01:15:54;5.63;;;2.60;;
46719;SDS011;32452;51.382;-0.002;2022-07-10T01:18:44;7.55;;;3.05;;
46719;SDS011;32452;51.382;-0.002;2022-07-10T01:21:46;9.95;;;4.05;;
46719;SDS011;32452;51.382;-0.002;2022-07-10T01:24:40;8.35;;;4.55;;
46719;SDS011;32452;51.382;-0.002;2022-07-10T01:27:26;7.82;;;3.15;;
46719;SDS011;32452;51.382;-0.002;2022-07-10T01:30:11;15.15;;;3.35;;
46719;SDS011;32452;51.382;-0.002;2022-07-10T01:32:57;7.85;;;2.90;;
46719;SDS011;32452;51.382;-0.002;2022-07-10T01:36:01;7.15;;;2.92;;
46719;SDS011;32452;51.382;-0.002;2022-07-10T01:38:46;8.40;;;3.05;;
46719;SDS011;32452;51.382;-0.002;2022-07-10T01:41:32;7.40;;;2.95;;
46719;SDS011;32452;51.382;-0.002;2022-07-10T01:44:18;8.10;;;3.17;;
46719;SDS011;32452;51.382;-0.002;2022-07-10T01:47:03;8.43;;;3.35;;
46719;SDS011;32452;51.382;-0.002;2022-07-10T01:49:50;7.07;;;2.92;;
46719;SDS011;32452;51.382;-0.002;2022-07-10T01:52:42;6.38;;;3.08;;
46719;SDS011;32452;51.382;-0.002;2022-07-10T01:55:30;7.97;;;3.30;;
46719;SDS011;32452;51.382;-0.002;2022-07-10T01:58:30;6.13;;;2.92;;
46719;SDS011;32452;51.382;-0.002;2022-07-10T02:01:29;7.57;;;3.40;;
46719;SDS011;32452;51.382;-0.002;2022-07-10T02:04:15;6.40;;;3.15;;
46719;SDS011;32452;51.382;-0.002;2022-07-10T02:07:19;6.28;;;2.85;;
46719;SDS011;32452;51.382;-0.002;2022-07-10T02:10:08;5.80;;;2.53;;
46719;SDS011;32452;51.382;-0.002;2022-07-10T02:12:59;10.57;;;3.83;;
46719;SDS011;32452;51.382;-0.002;2022-07-10T02:15:44;6.18;;;3.17;;
46719;SDS011;32452;51.382;-0.002;2022-07-10T02:18:30;6.07;;;2.65;;
46719;SDS011;32452;51.382;-0.002;2022-07-10T02:21:17;5.75;;;2.88;;
46719;SDS011;32452;51.382;-0.002;2022-07-10T02:24:03;6.97;;;3.30;;
46719;SDS011;32452;51.382;-0.002;2022-07-10T02:26:48;8.93;;;3.60;;
46719;SDS011;32452;51.382;-0.002;2022-07-10T02:29:34;5.28;;;2.90;;
46719;SDS011;32452;51.382;-0.002;2022-07-10T02:32:20;6.93;;;3.50;;
46719;SDS011;32452;51.382;-0.002;2022-07-10T02:35:06;7.90;;;3.40;;
46719;SDS011;32452;51.382;-0.002;2022-07-10T02:37:52;8.10;;;3.25;;
46719;SDS011;32452;51.382;-0.002;2022-07-10T02:40:38;6.05;;;2.92;;
46719;SDS011;32452;51.382;-0.002;2022-07-10T02:43:24;6.75;;;2.90;;
46719;SDS011;32452;51.382;-0.002;2022-07-10T02:46:20;6.70;;;2.70;;
46719;SDS011;32452;51.382;-0.002;2022-07-10T02:49:06;7.85;;;2.72;;
46719;SDS011;32452;51.382;-0.002;2022-07-10T02:51:51;8.32;;;3.00;;
46719;SDS011;32452;51.382;-0.002;2022-07-10T02:54:37;9.48;;;3.63;;
46719;SDS011;32452;51.382;-0.002;2022-07-10T02:57:23;6.97;;;2.83;;
46719;SDS011;32452;51.382;-0.002;2022-07-10T03:00:11;7.30;;;2.90;;
46719;SDS011;32452;51.382;-0.002;2022-07-10T03:02:58;8.15;;;2.70;;
46719;SDS011;32452;51.382;-0.002;2022-07-10T03:06:10;5.75;;;2.90;;
46719;SDS011;32452;51.382;-0.002;2022-07-10T03:09:05;5.45;;;2.80;;
46719;SDS011;32452;51.382;-0.002;2022-07-10T03:11:51;5.78;;;2.53;;
46719;SDS011;32452;51.382;-0.002;2022-07-10T03:14:38;4.60;;;2.67;;
46719;SDS011;32452;51.382;-0.002;2022-07-10T03:17:33;5.53;;;2.60;;
46719;SDS011;32452;51.382;-0.002;2022-07-10T03:20:50;5.80;;;2.28;;
46719;SDS011;32452;51.382;-0.002;2022-07-10T03:23:36;8.88;;;2.97;;
46719;SDS011;32452;51.382;-0.002;2022-07-10T03:26:25;5.50;;;2.40;;
46719;SDS011;32452;51.382;-0.002;2022-07-10T03:29:11;6.38;;;2.78;;
46719;SDS011;32452;51.382;-0.002;2022-07-10T03:31:56;10.80;;;2.92;;
46719;SDS011;32452;51.382;-0.002;2022-07-10T03:34:42;6.90;;;2.97;;
46719;SDS011;32452;51.382;-0.002;2022-07-10T03:37:27;4.32;;;2.35;;
46719;SDS011;32452;51.382;-0.002;2022-07-10T03:40:13;6.22;;;2.97;;
46719;SDS011;32452;51.382;-0.002;2022-07-10T03:42:58;5.10;;;2.85;;
46719;SDS011;32452;51.382;-0.002;2022-07-10T03:45:44;7.15;;;2.58;;
46719;SDS011;32452;51.382;-0.002;2022-07-10T03:48:30;7.70;;;2.30;;
46719;SDS011;32452;51.382;-0.002;2022-07-10T03:51:15;9.32;;;2.80;;
46719;SDS011;32452;51.382;-0.002;2022-07-10T03:54:01;5.05;;;2.50;;
46719;SDS011;32452;51.382;-0.002;2022-07-10T03:56:46;6.00;;;3.25;;
46719;SDS011;32452;51.382;-0.002;2022-07-10T03:59:50;3.75;;;2.45;;
46719;SDS011;32452;51.382;-0.002;2022-07-10T04:02:36;4.93;;;2.33;;
46719;SDS011;32452;51.382;-0.002;2022-07-10T04:05:22;7.20;;;2.35;;
46719;SDS011;32452;51.382;-0.002;2022-07-10T04:08:07;5.90;;;2.60;;
46719;SDS011;32452;51.382;-0.002;2022-07-10T04:10:53;4.20;;;2.38;;
46719;SDS011;32452;51.382;-0.002;2022-07-10T04:13:39;6.35;;;2.28;;
46719;SDS011;32452;51.382;-0.002;2022-07-10T04:16:24;8.75;;;2.45;;
46719;SDS011;32452;51.382;-0.002;2022-07-10T04:19:10;5.75;;;2.42;;
46719;SDS011;32452;51.382;-0.002;2022-07-10T04:21:55;3.80;;;1.85;;
46719;SDS011;32452;51.382;-0.002;2022-07-10T04:24:45;5.60;;;2.33;;
46719;SDS011;32452;51.382;-0.002;2022-07-10T04:27:46;5.70;;;2.13;;
46719;SDS011;32452;51.382;-0.002;2022-07-10T04:30:50;5.13;;;1.98;;
46719;SDS011;32452;51.382;-0.002;2022-07-10T04:33:53;4.30;;;1.92;;
46719;SDS011;32452;51.382;-0.002;2022-07-10T04:37:00;4.90;;;2.47;;
46719;SDS011;32452;51.382;-0.002;2022-07-10T04:39:52;4.25;;;2.28;;
46719;SDS011;32452;51.382;-0.002;2022-07-10T04:45:28;5.38;;;2.33;;
46719;SDS011;32452;51.382;-0.002;2022-07-10T04:48:23;3.50;;;2.13;;
46719;SDS011;32452;51.382;-0.002;2022-07-10T04:51:25;5.07;;;2.10;;
46719;SDS011;32452;51.382;-0.002;2022-07-10T04:54:15;4.38;;;1.95;;
46719;SDS011;32452;51.382;-0.002;2022-07-10T04:57:18;5.80;;;2.03;;
46719;SDS011;32452;51.382;-0.002;2022-07-10T05:00:03;7.00;;;2.10;;
46719;SDS011;32452;51.382;-0.002;2022-07-10T05:02:51;5.68;;;2.30;;
46719;SDS011;32452;51.382;-0.002;2022-07-10T05:05:48;7.00;;;2.13;;
46719;SDS011;32452;51.382;-0.002;2022-07-10T05:08:45;4.30;;;2.53;;
46719;SDS011;32452;51.382;-0.002;2022-07-10T05:11:39;4.35;;;1.88;;
46719;SDS011;32452;51.382;-0.002;2022-07-10T05:14:46;6.20;;;2.20;;
46719;SDS011;32452;51.382;-0.002;2022-07-10T05:17:45;2.63;;;1.60;;
46719;SDS011;32452;51.382;-0.002;2022-07-10T05:20:31;3.72;;;1.80;;
46719;SDS011;32452;51.382;-0.002;2022-07-10T05:23:22;4.20;;;1.60;;
46719;SDS011;32452;51.382;-0.002;2022-07-10T05:26:09;5.72;;;1.95;;
46719;SDS011;32452;51.382;-0.002;2022-07-10T05:28:56;3.55;;;1.60;;
46719;SDS011;32452;51.382;-0.002;2022-07-10T05:31:41;3.78;;;1.65;;
46719;SDS011;32452;51.382;-0.002;2022-07-10T05:34:28;3.53;;;1.58;;
46719;SDS011;32452;51.382;-0.002;2022-07-10T05:37:34;2.97;;;1.40;;
46719;SDS011;32452;51.382;-0.002;2022-07-10T05:40:21;4.53;;;1.63;;
46719;SDS011;32452;51.382;-0.002;2022-07-10T05:43:34;5.30;;;1.42;;
46719;SDS011;32452;51.382;-0.002;2022-07-10T05:46:19;3.42;;;1.45;;
46719;SDS011;32452;51.382;-0.002;2022-07-10T05:49:05;3.63;;;1.60;;
46719;SDS011;32452;51.382;-0.002;2022-07-10T05:51:51;3.38;;;1.38;;
46719;SDS011;32452;51.382;-0.002;2022-07-10T05:54:36;7.13;;;1.52;;
46719;SDS011;32452;51.382;-0.002;2022-07-10T05:57:22;2.15;;;1.38;;
46719;SDS011;32452;51.382;-0.002;2022-07-10T06:00:08;2.30;;;1.20;;
46719;SDS011;32452;51.382;-0.002;2022-07-10T06:02:54;5.15;;;1.63;;
46719;SDS011;32452;51.382;-0.002;2022-07-10T06:05:40;5.72;;;1.52;;
46719;SDS011;32452;51.382;-0.002;2022-07-10T06:08:32;5.35;;;0.98;;
46719;SDS011;32452;51.382;-0.002;2022-07-10T06:11:19;4.38;;;1.00;;
46719;SDS011;32452;51.382;-0.002;2022-07-10T06:14:19;3.15;;;1.02;;
46719;SDS011;32452;51.382;-0.002;2022-07-10T06:17:09;5.97;;;1.30;;
46719;SDS011;32452;51.382;-0.002;2022-07-10T06:20:10;3.60;;;1.10;;
46719;SDS011;32452;51.382;-0.002;2022-07-10T06:22:56;1.60;;;1.10;;
46719;SDS011;32452;51.382;-0.002;2022-07-10T06:25:42;5.25;;;1.15;;
46719;SDS011;32452;51.382;-0.002;2022-07-10T06:28:36;4.13;;;0.93;;
46719;SDS011;32452;51.382;-0.002;2022-07-10T06:31:22;6.07;;;1.15;;
46719;SDS011;32452;51.382;-0.002;2022-07-10T06:34:08;8.13;;;1.73;;
46719;SDS011;32452;51.382;-0.002;2022-07-10T06:36:53;5.35;;;0.90;;
46719;SDS011;32452;51.382;-0.002;2022-07-10T06:39:39;3.08;;;0.88;;
46719;SDS011;32452;51.382;-0.002;2022-07-10T06:42:25;3.20;;;1.10;;
46719;SDS011;32452;51.382;-0.002;2022-07-10T06:45:11;5.18;;;1.02;;
46719;SDS011;32452;51.382;-0.002;2022-07-10T06:47:56;6.38;;;1.40;;
46719;SDS011;32452;51.382;-0.002;2022-07-10T06:50:43;1.73;;;0.95;;
46719;SDS011;32452;51.382;-0.002;2022-07-10T06:53:28;5.45;;;1.05;;
46719;SDS011;32452;51.382;-0.002;2022-07-10T06:56:14;5.13;;;1.00;;
46719;SDS011;32452;51.382;-0.002;2022-07-10T06:59:01;1.80;;;1.00;;
46719;SDS011;32452;51.382;-0.002;2022-07-10T07:01:46;3.47;;;1.58;;
46719;SDS011;32452;51.382;-0.002;2022-07-10T07:04:32;6.22;;;1.30;;
46719;SDS011;32452;51.382;-0.002;2022-07-10T07:07:18;3.63;;;1.08;;
46719;SDS011;32452;51.382;-0.002;2022-07-10T07:10:11;3.95;;;1.15;;
46719;SDS011;32452;51.382;-0.002;2022-07-10T07:12:57;4.53;;;0.93;;
46719;SDS011;32452;51.382;-0.002;2022-07-10T07:15:44;1.88;;;1.10;;
46719;SDS011;32452;51.382;-0.002;2022-07-10T07:18:37;5.60;;;1.27;;
46719;SDS011;32452;51.382;-0.002;2022-07-10T07:21:32;2.33;;;0.88;;
46719;SDS011;32452;51.382;-0.002;2022-07-10T07:24:36;3.25;;;1.15;;
46719;SDS011;32452;51.382;-0.002;2022-07-10T07:27:22;2.33;;;1.10;;
46719;SDS011;32452;51.382;-0.002;2022-07-10T07:30:08;2.22;;;1.10;;
46719;SDS011;32452;51.382;-0.002;2022-07-10T07:32:56;1.58;;;1.00;;
46719;SDS011;32452;51.382;-0.002;2022-07-10T07:35:42;2.63;;;0.90;;
46719;SDS011;32452;51.382;-0.002;2022-07-10T07:38:28;4.13;;;2.05;;
46719;SDS011;32452;51.382;-0.002;2022-07-10T07:41:13;3.13;;;1.10;;
46719;SDS011;32452;51.382;-0.002;2022-07-10T07:44:00;3.63;;;1.25;;
46719;SDS011;32452;51.382;-0.002;2022-07-10T07:46:45;2.65;;;1.20;;
46719;SDS011;32452;51.382;-0.002;2022-07-10T07:49:31;1.80;;;1.40;;
46719;SDS011;32452;51.382;-0.002;2022-07-10T07:52:17;3.97;;;1.17;;
46719;SDS011;32452;51.382;-0.002;2022-07-10T07:55:02;2.70;;;1.20;;
46719;SDS011;32452;51.382;-0.002;2022-07-10T07:57:50;3.22;;;1.50;;
46719;SDS011;32452;51.382;-0.002;2022-07-10T08:00:37;3.15;;;1.10;;
46719;SDS011;32452;51.382;-0.002;2022-07-10T08:03:23;4.60;;;2.20;;
46719;SDS011;32452;51.382;-0.002;2022-07-10T08:06:29;3.60;;;1.48;;
46719;SDS011;32452;51.382;-0.002;2022-07-10T08:09:14;2.20;;;1.27;;
46719;SDS011;32452;51.382;-0.002;2022-07-10T08:12:00;3.80;;;1.70;;
46719;SDS011;32452;51.382;-0.002;2022-07-10T08:14:46;3.08;;;1.10;;
46719;SDS011;32452;51.382;-0.002;2022-07-10T08:17:32;4.32;;;1.27;;
46719;SDS011;32452;51.382;-0.002;2022-07-10T08:20:17;2.45;;;1.05;;
46719;SDS011;32452;51.382;-0.002;2022-07-10T08:23:03;5.55;;;1.10;;
46719;SDS011;32452;51.382;-0.002;2022-07-10T08:25:49;3.75;;;1.38;;
46719;SDS011;32452;51.382;-0.002;2022-07-10T08:28:34;3.33;;;1.63;;
46719;SDS011;32452;51.382;-0.002;2022-07-10T08:31:20;3.28;;;1.35;;
46719;SDS011;32452;51.382;-0.002;2022-07-10T08:34:06;4.15;;;1.30;;
46719;SDS011;32452;51.382;-0.002;2022-07-10T08:36:51;3.17;;;1.00;;
46719;SDS011;32452;51.382;-0.002;2022-07-10T08:39:37;3.08;;;1.20;;
46719;SDS011;32452;51.382;-0.002;2022-07-10T08:42:22;2.15;;;1.23;;
46719;SDS011;32452;51.382;-0.002;2022-07-10T08:45:10;3.97;;;1.30;;
46719;SDS011;32452;51.382;-0.002;2022-07-10T08:47:56;6.18;;;1.58;;
46719;SDS011;32452;51.382;-0.002;2022-07-10T08:50:51;6.13;;;1.30;;
46719;SDS011;32452;51.382;-0.002;2022-07-10T08:53:38;2.55;;;1.00;;
46719;SDS011;32452;51.382;-0.002;2022-07-10T08:56:24;2.35;;;1.40;;
46719;SDS011;32452;51.382;-0.002;2022-07-10T08:59:10;5.70;;;1.83;;
46719;SDS011;32452;51.382;-0.002;2022-07-10T09:01:59;3.60;;;1.23;;
46719;SDS011;32452;51.382;-0.002;2022-07-10T09:04:45;2.10;;;1.23;;
46719;SDS011;32452;51.382;-0.002;2022-07-10T09:07:35;3.50;;;1.25;;
46719;SDS011;32452;51.382;-0.002;2022-07-10T09:10:27;3.05;;;1.30;;
46719;SDS011;32452;51.382;-0.002;2022-07-10T09:13:13;2.17;;;1.25;;
46719;SDS011;32452;51.382;-0.002;2022-07-10T09:15:59;2.45;;;1.23;;
46719;SDS011;32452;51.382;-0.002;2022-07-10T09:18:45;4.15;;;1.65;;
46719;SDS011;32452;51.382;-0.002;2022-07-10T09:21:34;2.15;;;1.13;;
46719;SDS011;32452;51.382;-0.002;2022-07-10T09:24:20;3.63;;;1.17;;
46719;SDS011;32452;51.382;-0.002;2022-07-10T09:27:08;3.28;;;1.33;;
46719;SDS011;32452;51.382;-0.002;2022-07-10T09:29:56;4.10;;;1.63;;
46719;SDS011;32452;51.382;-0.002;2022-07-10T09:32:42;3.40;;;1.20;;
46719;SDS011;32452;51.382;-0.002;2022-07-10T09:35:28;5.03;;;1.40;;
46719;SDS011;32452;51.382;-0.002;2022-07-10T09:41:39;1.80;;;1.20;;
46719;SDS011;32452;51.382;-0.002;2022-07-10T09:44:25;2.97;;;1.30;;
46719;SDS011;32452;51.382;-0.002;2022-07-10T09:47:21;2.33;;;1.20;;
46719;SDS011;32452;51.382;-0.002;2022-07-10T09:50:20;3.58;;;1.40;;
46719;SDS011;32452;51.382;-0.002;2022-07-10T09:53:17;4.80;;;1.73;;
46719;SDS011;32452;51.382;-0.002;2022-07-10T09:56:03;3.08;;;1.60;;
46719;SDS011;32452;51.382;-0.002;2022-07-10T09:58:52;1.83;;;1.38;;
46719;SDS011;32452;51.382;-0.002;2022-07-10T10:01:48;2.50;;;1.50;;
46719;SDS011;32452;51.382;-0.002;2022-07-10T10:04:34;6.07;;;1.60;;
46719;SDS011;32452;51.382;-0.002;2022-07-10T10:07:24;5.78;;;1.88;;
46719;SDS011;32452;51.382;-0.002;2022-07-10T10:10:11;5.35;;;1.80;;
46719;SDS011;32452;51.382;-0.002;2022-07-10T10:12:58;2.00;;;1.20;;
46719;SDS011;32452;51.382;-0.002;2022-07-10T10:15:49;4.25;;;1.83;;
46719;SDS011;32452;51.382;-0.002;2022-07-10T10:18:36;4.75;;;1.35;;
46719;SDS011;32452;51.382;-0.002;2022-07-10T10:21:23;6.45;;;2.00;;
46719;SDS011;32452;51.382;-0.002;2022-07-10T10:24:10;3.63;;;1.65;;
46719;SDS011;32452;51.382;-0.002;2022-07-10T10:26:57;5.57;;;1.60;;
46719;SDS011;32452;51.382;-0.002;2022-07-10T10:29:44;3.35;;;1.38;;
46719;SDS011;32452;51.382;-0.002;2022-07-10T10:32:32;3.50;;;1.40;;
46719;SDS011;32452;51.382;-0.002;2022-07-10T10:41:40;2.10;;;1.23;;
46719;SDS011;32452;51.382;-0.002;2022-07-10T10:44:29;3.08;;;1.33;;
46719;SDS011;32452;51.382;-0.002;2022-07-10T10:47:16;1.70;;;1.33;;
46719;SDS011;32452;51.382;-0.002;2022-07-10T10:50:06;3.15;;;1.00;;
46719;SDS011;32452;51.382;-0.002;2022-07-10T10:53:00;2.38;;;1.40;;
46719;SDS011;32452;51.382;-0.002;2022-07-10T10:58:48;3.65;;;1.20;;
46719;SDS011;32452;51.382;-0.002;2022-07-10T11:01:35;3.22;;;1.23;;
46719;SDS011;32452;51.382;-0.002;2022-07-10T11:04:21;3.33;;;0.90;;
46719;SDS011;32452;51.382;-0.002;2022-07-10T11:07:08;2.45;;;1.30;;
46719;SDS011;32452;51.382;-0.002;2022-07-10T11:10:19;3.97;;;1.50;;
46719;SDS011;32452;51.382;-0.002;2022-07-10T11:13:16;2.95;;;1.30;;
46719;SDS011;32452;51.382;-0.002;2022-07-10T11:16:04;2.47;;;1.40;;
46719;SDS011;32452;51.382;-0.002;2022-07-10T11:18:58;4.85;;;1.70;;
46719;SDS011;32452;51.382;-0.002;2022-07-10T11:21:46;5.35;;;1.88;;
46719;SDS011;32452;51.382;-0.002;2022-07-10T11:24:45;1.67;;;1.30;;
46719;SDS011;32452;51.382;-0.002;2022-07-10T11:27:58;2.03;;;1.40;;
46719;SDS011;32452;51.382;-0.002;2022-07-10T11:30:54;3.88;;;1.45;;
46719;SDS011;32452;51.382;-0.002;2022-07-10T11:33:40;4.07;;;1.58;;
46719;SDS011;32452;51.382;-0.002;2022-07-10T11:36:28;4.05;;;1.60;;
46719;SDS011;32452;51.382;-0.002;2022-07-10T11:39:20;2.47;;;1.40;;
46719;SDS011;32452;51.382;-0.002;2022-07-10T11:42:09;3.03;;;1.63;;
46719;SDS011;32452;51.382;-0.002;2022-07-10T11:44:55;2.00;;;1.25;;
46719;SDS011;32452;51.382;-0.002;2022-07-10T11:47:40;3.97;;;1.30;;
46719;SDS011;32452;51.382;-0.002;2022-07-10T11:50:28;2.17;;;1.45;;
46719;SDS011;32452;51.382;-0.002;2022-07-10T11:53:24;3.05;;;1.50;;
46719;SDS011;32452;51.382;-0.002;2022-07-10T11:56:11;4.97;;;1.95;;
46719;SDS011;32452;51.382;-0.002;2022-07-10T11:59:04;3.47;;;1.50;;
46719;SDS011;32452;51.382;-0.002;2022-07-10T12:01:51;3.05;;;1.27;;
46719;SDS011;32452;51.382;-0.002;2022-07-10T12:04:39;4.32;;;1.38;;
46719;SDS011;32452;51.382;-0.002;2022-07-10T12:07:25;4.28;;;1.70;;
46719;SDS011;32452;51.382;-0.002;2022-07-10T12:10:11;4.93;;;1.85;;
46719;SDS011;32452;51.382;-0.002;2022-07-10T12:13:07;2.63;;;1.50;;
46719;SDS011;32452;51.382;-0.002;2022-07-10T12:15:56;3.60;;;1.45;;
46719;SDS011;32452;51.382;-0.002;2022-07-10T12:18:42;2.83;;;1.45;;
46719;SDS011;32452;51.382;-0.002;2022-07-10T12:21:30;4.18;;;1.40;;
46719;SDS011;32452;51.382;-0.002;2022-07-10T12:24:17;3.88;;;1.50;;
46719;SDS011;32452;51.382;-0.002;2022-07-10T12:27:08;5.15;;;1.80;;
46719;SDS011;32452;51.382;-0.002;2022-07-10T12:30:01;4.30;;;1.70;;
46719;SDS011;32452;51.382;-0.002;2022-07-10T12:32:47;3.00;;;1.45;;
46719;SDS011;32452;51.382;-0.002;2022-07-10T12:38:37;2.70;;;1.58;;
46719;SDS011;32452;51.382;-0.002;2022-07-10T12:41:26;3.33;;;1.50;;
46719;SDS011;32452;51.382;-0.002;2022-07-10T12:44:12;3.30;;;1.80;;
46719;SDS011;32452;51.382;-0.002;2022-07-10T12:47:01;3.15;;;1.45;;
46719;SDS011;32452;51.382;-0.002;2022-07-10T12:49:55;3.05;;;1.77;;
46719;SDS011;32452;51.382;-0.002;2022-07-10T12:52:41;3.03;;;1.67;;
46719;SDS011;32452;51.382;-0.002;2022-07-10T12:55:34;2.83;;;1.80;;
46719;SDS011;32452;51.382;-0.002;2022-07-10T12:58:20;3.03;;;1.27;;
46719;SDS011;32452;51.382;-0.002;2022-07-10T13:01:07;2.65;;;1.80;;
46719;SDS011;32452;51.382;-0.002;2022-07-10T13:04:00;3.15;;;1.40;;
46719;SDS011;32452;51.382;-0.002;2022-07-10T13:06:46;1.58;;;1.45;;
46719;SDS011;32452;51.382;-0.002;2022-07-10T13:09:33;2.63;;;1.48;;
46719;SDS011;32452;51.382;-0.002;2022-07-10T13:12:25;4.20;;;1.50;;
46719;SDS011;32452;51.382;-0.002;2022-07-10T13:15:11;3.70;;;1.20;;
46719;SDS011;32452;51.382;-0.002;2022-07-10T13:18:00;3.67;;;1.48;;
46719;SDS011;32452;51.382;-0.002;2022-07-10T13:20:52;4.75;;;1.48;;
46719;SDS011;32452;51.382;-0.002;2022-07-10T13:23:45;2.88;;;1.48;;
46719;SDS011;32452;51.382;-0.002;2022-07-10T13:26:32;3.00;;;1.60;;
46719;SDS011;32452;51.382;-0.002;2022-07-10T13:29:19;1.90;;;1.30;;
46719;SDS011;32452;51.382;-0.002;2022-07-10T13:32:05;4.10;;;1.30;;
46719;SDS011;32452;51.382;-0.002;2022-07-10T13:34:51;3.08;;;1.88;;
46719;SDS011;32452;51.382;-0.002;2022-07-10T13:37:37;2.75;;;1.63;;
46719;SDS011;32452;51.382;-0.002;2022-07-10T13:40:23;3.53;;;1.67;;
46719;SDS011;32452;51.382;-0.002;2022-07-10T13:43:10;4.80;;;1.80;;
46719;SDS011;32452;51.382;-0.002;2022-07-10T13:46:00;1.52;;;1.33;;
46719;SDS011;32452;51.382;-0.002;2022-07-10T13:48:47;4.32;;;1.90;;
46719;SDS011;32452;51.382;-0.002;2022-07-10T13:51:33;4.57;;;1.50;;
46719;SDS011;32452;51.382;-0.002;2022-07-10T13:54:20;4.32;;;1.50;;
46719;SDS011;32452;51.382;-0.002;2022-07-10T13:57:06;3.75;;;1.88;;
46719;SDS011;32452;51.382;-0.002;2022-07-10T13:59:52;2.28;;;1.45;;
46719;SDS011;32452;51.382;-0.002;2022-07-10T14:02:39;3.22;;;1.52;;
46719;SDS011;32452;51.382;-0.002;2022-07-10T14:05:25;3.33;;;2.00;;
46719;SDS011;32452;51.382;-0.002;2022-07-10T14:08:11;3.20;;;1.67;;
46719;SDS011;32452;51.382;-0.002;2022-07-10T14:10:57;4.88;;;1.80;;
46719;SDS011;32452;51.382;-0.002;2022-07-10T14:13:43;6.10;;;2.20;;
46719;SDS011;32452;51.382;-0.002;2022-07-10T14:16:28;3.15;;;1.90;;
46719;SDS011;32452;51.382;-0.002;2022-07-10T14:19:14;3.15;;;2.03;;
46719;SDS011;32452;51.382;-0.002;2022-07-10T14:21:59;4.05;;;1.20;;
46719;SDS011;32452;51.382;-0.002;2022-07-10T14:24:45;3.15;;;1.77;;
46719;SDS011;32452;51.382;-0.002;2022-07-10T14:27:31;2.60;;;1.60;;
46719;SDS011;32452;51.382;-0.002;2022-07-10T14:30:17;4.60;;;2.05;;
46719;SDS011;32452;51.382;-0.002;2022-07-10T14:33:03;3.17;;;1.73;;
46719;SDS011;32452;51.382;-0.002;2022-07-10T14:35:49;2.63;;;1.60;;
46719;SDS011;32452;51.382;-0.002;2022-07-10T14:38:34;2.15;;;1.50;;
46719;SDS011;32452;51.382;-0.002;2022-07-10T14:41:22;2.22;;;1.42;;
46719;SDS011;32452;51.382;-0.002;2022-07-10T14:44:09;2.80;;;1.70;;
46719;SDS011;32452;51.382;-0.002;2022-07-10T14:46:54;3.92;;;2.22;;
46719;SDS011;32452;51.382;-0.002;2022-07-10T14:49:40;3.72;;;2.00;;
46719;SDS011;32452;51.382;-0.002;2022-07-10T14:52:25;3.28;;;1.77;;
46719;SDS011;32452;51.382;-0.002;2022-07-10T14:55:13;9.25;;;4.38;;
46719;SDS011;32452;51.382;-0.002;2022-07-10T14:57:59;3.42;;;2.05;;
46719;SDS011;32452;51.382;-0.002;2022-07-10T15:00:45;5.38;;;4.25;;
46719;SDS011;32452;51.382;-0.002;2022-07-10T15:03:31;3.13;;;1.80;;
46719;SDS011;32452;51.382;-0.002;2022-07-10T15:06:17;3.28;;;1.67;;
46719;SDS011;32452;51.382;-0.002;2022-07-10T15:09:03;3.53;;;1.65;;
46719;SDS011;32452;51.382;-0.002;2022-07-10T15:11:48;2.45;;;1.70;;
46719;SDS011;32452;51.382;-0.002;2022-07-10T15:14:34;3.15;;;1.60;;
46719;SDS011;32452;51.382;-0.002;2022-07-10T15:17:19;4.65;;;2.10;;
46719;SDS011;32452;51.382;-0.002;2022-07-10T15:20:05;3.90;;;1.55;;
46719;SDS011;32452;51.382;-0.002;2022-07-10T15:22:51;3.95;;;1.95;;
46719;SDS011;32452;51.382;-0.002;2022-07-10T15:25:37;4.50;;;1.85;;
46719;SDS011;32452;51.382;-0.002;2022-07-10T15:28:25;4.35;;;1.98;;
46719;SDS011;32452;51.382;-0.002;2022-07-10T15:31:11;6.80;;;2.67;;
46719;SDS011;32452;51.382;-0.002;2022-07-10T15:33:56;3.45;;;1.80;;
46719;SDS011;32452;51.382;-0.002;2022-07-10T15:36:42;6.85;;;2.83;;
46719;SDS011;32452;51.382;-0.002;2022-07-10T15:39:30;2.60;;;1.73;;
46719;SDS011;32452;51.382;-0.002;2022-07-10T15:42:26;4.38;;;1.95;;
46719;SDS011;32452;51.382;-0.002;2022-07-10T15:45:11;3.03;;;2.13;;
46719;SDS011;32452;51.382;-0.002;2022-07-10T15:47:59;7.25;;;2.00;;
46719;SDS011;32452;51.382;-0.002;2022-07-10T15:50:48;4.72;;;1.85;;
46719;SDS011;32452;51.382;-0.002;2022-07-10T15:53:34;3.97;;;1.90;;
46719;SDS011;32452;51.382;-0.002;2022-07-10T15:56:20;7.10;;;2.60;;
46719;SDS011;32452;51.382;-0.002;2022-07-10T15:59:05;3.17;;;1.75;;
46719;SDS011;32452;51.382;-0.002;2022-07-10T16:01:55;3.90;;;1.70;;
46719;SDS011;32452;51.382;-0.002;2022-07-10T16:04:43;6.47;;;2.08;;
46719;SDS011;32452;51.382;-0.002;2022-07-10T16:07:29;4.80;;;1.98;;
46719;SDS011;32452;51.382;-0.002;2022-07-10T16:10:14;3.10;;;1.83;;
46719;SDS011;32452;51.382;-0.002;2022-07-10T16:13:00;3.42;;;1.90;;
46719;SDS011;32452;51.382;-0.002;2022-07-10T16:15:46;3.60;;;1.80;;
46719;SDS011;32452;51.382;-0.002;2022-07-10T16:18:31;2.63;;;1.73;;
46719;SDS011;32452;51.382;-0.002;2022-07-10T16:21:17;5.07;;;2.20;;
46719;SDS011;32452;51.382;-0.002;2022-07-10T16:24:03;6.45;;;2.35;;
46719;SDS011;32452;51.382;-0.002;2022-07-10T16:26:48;3.30;;;1.70;;
46719;SDS011;32452;51.382;-0.002;2022-07-10T16:29:34;4.10;;;1.80;;
46719;SDS011;32452;51.382;-0.002;2022-07-10T16:32:20;6.75;;;2.75;;
46719;SDS011;32452;51.382;-0.002;2022-07-10T16:35:07;5.15;;;2.35;;
46719;SDS011;32452;51.382;-0.002;2022-07-10T16:37:55;5.45;;;1.85;;
46719;SDS011;32452;51.382;-0.002;2022-07-10T16:40:47;2.80;;;1.67;;
46719;SDS011;32452;51.382;-0.002;2022-07-10T16:43:32;2.10;;;1.60;;
46719;SDS011;32452;51.382;-0.002;2022-07-10T16:46:18;3.50;;;1.67;;
46719;SDS011;32452;51.382;-0.002;2022-07-10T16:49:05;3.63;;;1.88;;
46719;SDS011;32452;51.382;-0.002;2022-07-10T16:51:51;3.75;;;1.77;;
46719;SDS011;32452;51.382;-0.002;2022-07-10T16:54:37;2.75;;;1.70;;
46719;SDS011;32452;51.382;-0.002;2022-07-10T16:57:23;4.85;;;1.85;;
46719;SDS011;32452;51.382;-0.002;2022-07-10T17:00:09;2.78;;;1.70;;